createdAt,value
2017-07-21T00:00:14.679Z,0
2017-07-21T00:01:14.696Z,0
2017-07-21T00:02:14.626Z,0
2017-07-21T00:03:14.636Z,0
2017-07-21T00:04:14.645Z,0
2017-07-21T00:05:14.606Z,0
2017-07-21T00:06:14.587Z,0
2017-07-21T00:07:14.576Z,0
2017-07-21T00:08:14.254Z,0
2017-07-21T00:09:14.598Z,0
2017-07-21T00:10:14.547Z,0
2017-07-21T00:11:14.584Z,0
2017-07-21T00:12:14.826Z,0
2017-07-21T00:13:14.786Z,0
2017-07-21T00:14:14.465Z,0
2017-07-21T00:15:14.515Z,0
2017-07-21T00:16:14.447Z,0
2017-07-21T00:17:14.447Z,0
2017-07-21T00:18:14.722Z,0
2017-07-21T00:19:14.804Z,0
2017-07-21T00:20:14.688Z,0
2017-07-21T00:21:14.380Z,0
2017-07-21T00:22:14.675Z,0
2017-07-21T00:23:14.658Z,0
2017-07-21T00:24:14.641Z,0
2017-07-21T00:25:14.652Z,0
2017-07-21T00:26:14.415Z,0
2017-07-21T00:27:14.286Z,0
2017-07-21T00:28:14.395Z,0
2017-07-21T00:29:14.586Z,0
2017-07-21T00:30:13.956Z,0
2017-07-21T00:31:14.546Z,0
2017-07-21T00:32:14.525Z,0
2017-07-21T00:33:14.510Z,0
2017-07-21T00:34:14.573Z,0
2017-07-21T00:35:14.536Z,0
2017-07-21T00:36:14.524Z,0
2017-07-21T00:37:14.464Z,0
2017-07-21T00:38:13.943Z,0
2017-07-21T00:39:14.444Z,0
2017-07-21T00:40:14.217Z,0
2017-07-21T00:41:14.399Z,0
2017-07-21T00:42:14.085Z,0
2017-07-21T00:43:14.385Z,0
2017-07-21T00:44:14.359Z,0
2017-07-21T00:45:14.156Z,0
2017-07-21T00:46:13.725Z,0
2017-07-21T00:47:14.315Z,0
2017-07-21T00:48:14.065Z,0
2017-07-21T00:49:14.295Z,0
2017-07-21T00:50:13.676Z,0
2017-07-21T00:51:14.266Z,0
2017-07-21T00:52:13.934Z,0
2017-07-21T00:53:14.244Z,0
2017-07-21T00:56:57.944Z,0
2017-07-21T00:57:13.842Z,0
2017-07-21T00:58:14.161Z,0
2017-07-21T00:59:13.843Z,0
2017-07-21T01:00:13.866Z,0
2017-07-21T01:01:14.150Z,0
2017-07-21T01:02:13.809Z,0
2017-07-21T01:03:13.773Z,0
2017-07-21T01:04:14.065Z,0
2017-07-21T01:05:14.083Z,0
2017-07-21T01:06:13.741Z,0
2017-07-21T01:07:14.040Z,0
2017-07-21T01:08:14.038Z,0
2017-07-21T01:09:14.003Z,0
2017-07-21T01:10:13.994Z,0
2017-07-21T01:11:13.981Z,0
2017-07-21T01:12:13.956Z,0
2017-07-21T01:13:13.334Z,0
2017-07-21T01:14:13.619Z,0
2017-07-21T01:15:13.914Z,0
2017-07-21T01:16:13.282Z,0
2017-07-21T01:17:13.331Z,0
2017-07-21T01:18:13.253Z,0
2017-07-21T01:19:13.559Z,0
2017-07-21T01:20:13.540Z,0
2017-07-21T01:21:13.679Z,0
2017-07-21T01:22:13.812Z,0
2017-07-21T01:23:13.492Z,0
2017-07-21T01:24:13.485Z,0
2017-07-21T01:25:13.595Z,0
2017-07-21T01:26:13.139Z,0
2017-07-21T01:27:13.510Z,0
2017-07-21T01:28:13.723Z,0
2017-07-21T01:29:13.710Z,0
2017-07-21T01:30:13.390Z,0
2017-07-21T01:31:13.073Z,0
2017-07-21T01:32:13.670Z,0
2017-07-21T01:33:13.670Z,0
2017-07-21T01:34:13.349Z,0
2017-07-21T01:35:13.640Z,0
2017-07-21T01:36:13.625Z,0
2017-07-21T01:37:13.610Z,0
2017-07-21T01:38:13.580Z,0
2017-07-21T01:39:13.247Z,0
2017-07-21T01:40:13.333Z,0
2017-07-21T01:41:13.239Z,0
2017-07-21T01:42:13.536Z,0
2017-07-21T01:43:13.191Z,0
2017-07-21T01:44:13.183Z,0
2017-07-21T01:45:12.865Z,0
2017-07-21T01:46:13.457Z,0
2017-07-21T01:47:13.440Z,0
2017-07-21T01:48:13.441Z,0
2017-07-21T01:49:13.412Z,0
2017-07-21T01:50:12.790Z,0
2017-07-21T01:51:13.379Z,0
2017-07-21T01:52:13.379Z,0
2017-07-21T01:53:13.345Z,0
2017-07-21T01:54:13.375Z,0
2017-07-21T01:55:13.009Z,0
2017-07-21T01:56:13.055Z,0
2017-07-21T01:57:13.300Z,0
2017-07-21T01:58:13.291Z,0
2017-07-21T01:59:12.657Z,0
2017-07-21T02:00:13.251Z,0
2017-07-21T02:01:13.353Z,0
2017-07-21T02:02:13.270Z,0
2017-07-21T02:03:13.222Z,0
2017-07-21T02:04:13.291Z,0
2017-07-21T02:05:13.190Z,0
2017-07-21T02:06:13.241Z,0
2017-07-21T02:07:13.162Z,0
2017-07-21T02:08:13.230Z,0
2017-07-21T02:09:12.831Z,0
2017-07-21T02:10:13.180Z,0
2017-07-21T02:11:13.098Z,0
2017-07-21T02:12:12.471Z,0
2017-07-21T02:13:12.751Z,0
2017-07-21T02:14:12.778Z,0
2017-07-21T02:15:12.410Z,0
2017-07-21T02:16:13.129Z,0
2017-07-21T02:17:13.004Z,0
2017-07-21T02:18:12.471Z,0
2017-07-21T02:19:12.974Z,0
2017-07-21T02:20:13.002Z,0
2017-07-21T02:21:12.942Z,0
2017-07-21T02:22:13.030Z,0
2017-07-21T02:23:12.010Z,0
2017-07-21T02:24:12.613Z,0
2017-07-21T02:25:12.905Z,0
2017-07-21T02:26:12.607Z,0
2017-07-21T02:27:12.612Z,0
2017-07-21T02:28:12.262Z,0
2017-07-21T02:29:12.524Z,0
2017-07-21T02:30:12.490Z,0
2017-07-21T02:31:12.509Z,0
2017-07-21T02:32:12.463Z,0
2017-07-21T02:33:12.150Z,0
2017-07-21T02:34:12.450Z,0
2017-07-21T02:35:12.442Z,0
2017-07-21T02:36:12.408Z,0
2017-07-21T02:37:12.390Z,0
2017-07-21T02:38:12.729Z,0
2017-07-21T02:39:12.101Z,0
2017-07-21T02:40:12.379Z,0
2017-07-21T02:41:12.132Z,0
2017-07-21T02:42:12.024Z,0
2017-07-21T02:43:12.010Z,0
2017-07-21T02:44:12.290Z,0
2017-07-21T02:45:11.971Z,0
2017-07-21T02:46:12.561Z,0
2017-07-21T02:47:12.259Z,0
2017-07-21T02:48:12.223Z,0
2017-07-21T02:49:12.213Z,0
2017-07-21T02:50:12.199Z,0
2017-07-21T02:51:11.886Z,0
2017-07-21T02:52:12.200Z,0
2017-07-21T02:53:11.947Z,0
2017-07-21T02:54:12.141Z,0
2017-07-21T02:55:12.130Z,0
2017-07-21T02:56:12.106Z,0
2017-07-21T02:57:12.400Z,0
2017-07-21T02:58:12.072Z,0
2017-07-21T02:59:12.070Z,0
2017-07-21T03:00:11.790Z,4
2017-07-21T03:01:12.071Z,4
2017-07-21T03:02:12.030Z,4
2017-07-21T03:03:11.729Z,0
2017-07-21T03:04:12.311Z,4
2017-07-21T03:05:12.299Z,4
2017-07-21T03:06:12.281Z,4
2017-07-21T03:07:12.249Z,4
2017-07-21T03:08:12.228Z,8
2017-07-21T03:09:11.677Z,4
2017-07-21T03:10:11.922Z,8
2017-07-21T03:11:12.192Z,8
2017-07-21T03:12:12.185Z,8
2017-07-21T03:13:12.157Z,12
2017-07-21T03:14:12.155Z,12
2017-07-21T03:15:12.151Z,12
2017-07-21T03:16:12.120Z,16
2017-07-21T03:17:12.103Z,16
2017-07-21T03:18:12.111Z,16
2017-07-21T03:19:12.080Z,20
2017-07-21T03:20:11.759Z,24
2017-07-21T03:21:12.040Z,28
2017-07-21T03:22:12.030Z,28
2017-07-21T03:23:12.010Z,36
2017-07-21T03:24:12.001Z,40
2017-07-21T03:25:11.698Z,44
2017-07-21T03:26:11.808Z,44
2017-07-21T03:27:11.949Z,48
2017-07-21T03:28:11.931Z,56
2017-07-21T03:29:11.631Z,60
2017-07-21T03:30:11.322Z,68
2017-07-21T03:31:11.902Z,72
2017-07-21T03:32:11.874Z,80
2017-07-21T03:33:11.850Z,88
2017-07-21T03:34:11.602Z,96
2017-07-21T03:35:11.209Z,104
2017-07-21T03:36:11.191Z,112
2017-07-21T03:37:11.191Z,124
2017-07-21T03:38:11.486Z,132
2017-07-21T03:39:11.501Z,140
2017-07-21T03:40:11.439Z,152
2017-07-21T03:41:11.740Z,164
2017-07-21T03:42:11.111Z,176
2017-07-21T03:43:11.429Z,188
2017-07-21T03:44:11.380Z,196
2017-07-21T03:45:11.688Z,212
2017-07-21T03:46:11.652Z,224
2017-07-21T03:47:11.651Z,240
2017-07-21T03:48:11.637Z,256
2017-07-21T03:49:11.629Z,268
2017-07-21T03:50:11.586Z,284
2017-07-21T03:51:11.583Z,304
2017-07-21T03:52:11.554Z,320
2017-07-21T03:53:11.560Z,340
2017-07-21T03:54:11.536Z,356
2017-07-21T03:55:10.910Z,372
2017-07-21T03:56:11.188Z,392
2017-07-21T03:57:11.474Z,412
2017-07-21T03:58:11.460Z,432
2017-07-21T03:59:11.172Z,452
2017-07-21T04:00:11.129Z,472
2017-07-21T04:01:10.804Z,492
2017-07-21T04:02:11.404Z,508
2017-07-21T04:03:10.768Z,532
2017-07-21T04:04:11.071Z,552
2017-07-21T04:05:11.351Z,576
2017-07-21T04:06:11.345Z,596
2017-07-21T04:07:11.047Z,624
2017-07-21T04:08:10.699Z,652
2017-07-21T04:09:10.699Z,676
2017-07-21T04:10:11.359Z,704
2017-07-21T04:11:10.713Z,728
2017-07-21T04:12:10.952Z,752
2017-07-21T04:13:10.939Z,776
2017-07-21T04:14:11.291Z,796
2017-07-21T04:15:11.209Z,812
2017-07-21T04:16:11.237Z,832
2017-07-21T04:17:11.168Z,848
2017-07-21T04:18:10.864Z,864
2017-07-21T04:19:10.859Z,884
2017-07-21T04:20:10.519Z,896
2017-07-21T04:21:10.811Z,904
2017-07-21T04:22:10.497Z,912
2017-07-21T04:23:11.106Z,924
2017-07-21T04:24:10.761Z,940
2017-07-21T04:25:11.111Z,956
2017-07-21T04:26:11.040Z,964
2017-07-21T04:27:11.087Z,972
2017-07-21T04:28:11.000Z,988
2017-07-21T04:29:10.988Z,1012
2017-07-21T04:30:10.667Z,1040
2017-07-21T04:31:10.668Z,1064
2017-07-21T04:32:10.939Z,1084
2017-07-21T04:33:11.026Z,1100
2017-07-21T04:34:10.654Z,1116
2017-07-21T04:35:10.607Z,1132
2017-07-21T04:36:10.619Z,1132
2017-07-21T04:37:10.567Z,1128
2017-07-21T04:38:10.688Z,1116
2017-07-21T04:39:10.240Z,1128
2017-07-21T04:40:10.509Z,1168
2017-07-21T04:41:10.860Z,1224
2017-07-21T04:42:10.489Z,1260
2017-07-21T04:43:10.761Z,1284
2017-07-21T04:44:10.761Z,1312
2017-07-21T04:45:10.137Z,1340
2017-07-21T04:46:10.425Z,1368
2017-07-21T04:47:10.090Z,1408
2017-07-21T04:48:10.399Z,1456
2017-07-21T04:49:10.705Z,1484
2017-07-21T04:50:10.369Z,1512
2017-07-21T04:51:10.019Z,1544
2017-07-21T04:52:10.659Z,1576
2017-07-21T04:53:10.612Z,1604
2017-07-21T04:54:10.631Z,1628
2017-07-21T04:55:09.963Z,1648
2017-07-21T04:56:10.260Z,1672
2017-07-21T04:57:10.249Z,1696
2017-07-21T04:58:09.939Z,1720
2017-07-21T04:59:10.540Z,1744
2017-07-21T05:00:10.509Z,1756
2017-07-21T05:01:10.519Z,1780
2017-07-21T05:02:10.190Z,1808
2017-07-21T05:03:10.481Z,1832
2017-07-21T05:04:10.439Z,1852
2017-07-21T05:05:10.135Z,1872
2017-07-21T05:06:10.098Z,1896
2017-07-21T05:07:10.440Z,1920
2017-07-21T05:08:10.377Z,1944
2017-07-21T05:09:10.072Z,1968
2017-07-21T05:10:10.350Z,1988
2017-07-21T05:11:10.028Z,2008
2017-07-21T05:12:10.019Z,2028
2017-07-21T05:13:09.690Z,2052
2017-07-21T05:14:10.300Z,2080
2017-07-21T05:15:09.369Z,2088
2017-07-21T05:16:10.258Z,2116
2017-07-21T05:17:09.643Z,2144
2017-07-21T05:18:09.915Z,2164
2017-07-21T05:19:09.900Z,2184
2017-07-21T05:20:09.897Z,2208
2017-07-21T05:21:09.591Z,2232
2017-07-21T05:22:10.223Z,2240
2017-07-21T05:23:09.886Z,2244
2017-07-21T05:24:09.840Z,2268
2017-07-21T05:25:09.818Z,2292
2017-07-21T05:26:09.802Z,2328
2017-07-21T05:27:09.790Z,2364
2017-07-21T05:28:09.780Z,2392
2017-07-21T05:29:09.792Z,2420
2017-07-21T05:30:09.739Z,2436
2017-07-21T05:31:09.729Z,2464
2017-07-21T05:32:09.997Z,2492
2017-07-21T05:33:09.467Z,2532
2017-07-21T05:34:09.684Z,2564
2017-07-21T05:35:09.670Z,2596
2017-07-21T05:36:09.659Z,2620
2017-07-21T05:37:09.329Z,2648
2017-07-21T05:38:09.618Z,2656
2017-07-21T05:39:09.581Z,2688
2017-07-21T05:40:09.889Z,2720
2017-07-21T05:41:09.868Z,2752
2017-07-21T05:42:09.868Z,2772
2017-07-21T05:43:09.849Z,2796
2017-07-21T05:44:09.538Z,2824
2017-07-21T05:45:09.825Z,2852
2017-07-21T05:46:09.824Z,2872
2017-07-21T05:47:09.792Z,2900
2017-07-21T05:48:09.161Z,2932
2017-07-21T05:49:09.768Z,2964
2017-07-21T05:50:09.730Z,2992
2017-07-21T05:51:09.399Z,3016
2017-07-21T05:52:09.725Z,3044
2017-07-21T05:53:09.700Z,3076
2017-07-21T05:54:09.360Z,3108
2017-07-21T05:55:09.671Z,3128
2017-07-21T05:56:09.648Z,3156
2017-07-21T05:57:09.629Z,3176
2017-07-21T05:58:09.659Z,3204
2017-07-21T05:59:09.632Z,3232
2017-07-21T06:00:09.691Z,3244
2017-07-21T06:01:09.566Z,3256
2017-07-21T06:02:09.245Z,3284
2017-07-21T06:03:08.617Z,3308
2017-07-21T06:04:09.247Z,3336
2017-07-21T06:05:09.220Z,3364
2017-07-21T06:06:09.180Z,3392
2017-07-21T06:07:09.511Z,3436
2017-07-21T06:08:09.165Z,3500
2017-07-21T06:09:09.450Z,3564
2017-07-21T06:10:09.130Z,3644
2017-07-21T06:11:09.131Z,3720
2017-07-21T06:12:09.090Z,3808
2017-07-21T06:13:09.100Z,3876
2017-07-21T06:14:09.404Z,3960
2017-07-21T06:15:09.445Z,4072
2017-07-21T06:16:09.050Z,4164
2017-07-21T06:17:09.029Z,4164
2017-07-21T06:18:09.036Z,4136
2017-07-21T06:19:08.988Z,4088
2017-07-21T06:20:09.034Z,4104
2017-07-21T06:21:08.983Z,4156
2017-07-21T06:22:09.262Z,4204
2017-07-21T06:23:08.625Z,4176
2017-07-21T06:24:08.929Z,4140
2017-07-21T06:25:09.220Z,4108
2017-07-21T06:26:09.233Z,4040
2017-07-21T06:27:08.880Z,4004
2017-07-21T06:28:09.230Z,4008
2017-07-21T06:29:09.152Z,4036
2017-07-21T06:30:09.179Z,4060
2017-07-21T06:31:09.107Z,4068
2017-07-21T06:32:08.501Z,4120
2017-07-21T06:33:09.161Z,4232
2017-07-21T06:34:08.495Z,4264
2017-07-21T06:35:08.758Z,4260
2017-07-21T06:36:08.469Z,4308
2017-07-21T06:37:09.048Z,4340
2017-07-21T06:38:09.013Z,4364
2017-07-21T06:39:08.710Z,4416
2017-07-21T06:40:08.685Z,4488
2017-07-21T06:41:08.721Z,4580
2017-07-21T06:42:08.659Z,4672
2017-07-21T06:43:08.631Z,4760
2017-07-21T06:44:08.624Z,4804
2017-07-21T06:45:08.665Z,4820
2017-07-21T06:46:08.917Z,4848
2017-07-21T06:47:08.270Z,4792
2017-07-21T06:48:08.889Z,4760
2017-07-21T06:49:08.857Z,4760
2017-07-21T06:50:08.538Z,4768
2017-07-21T06:51:08.520Z,4792
2017-07-21T06:52:08.849Z,4800
2017-07-21T06:53:08.482Z,4780
2017-07-21T06:54:08.502Z,4704
2017-07-21T06:55:07.910Z,4712
2017-07-21T06:56:08.758Z,4664
2017-07-21T06:57:08.788Z,4664
2017-07-21T06:58:08.731Z,4656
2017-07-21T06:59:08.750Z,4680
2017-07-21T07:00:08.156Z,4740
2017-07-21T07:01:08.690Z,4756
2017-07-21T07:02:08.379Z,4864
2017-07-21T07:03:08.152Z,4880
2017-07-21T07:04:08.648Z,4964
2017-07-21T07:05:08.341Z,4988
2017-07-21T07:06:08.438Z,4984
2017-07-21T07:07:08.298Z,4948
2017-07-21T07:08:08.339Z,4896
2017-07-21T07:09:08.370Z,4824
2017-07-21T07:10:08.089Z,4832
2017-07-21T07:11:07.718Z,4776
2017-07-21T07:12:08.017Z,4764
2017-07-21T07:13:08.280Z,4776
2017-07-21T07:14:08.510Z,4764
2017-07-21T07:15:08.515Z,4664
2017-07-21T07:16:08.180Z,4776
2017-07-21T07:17:07.920Z,4828
2017-07-21T07:18:08.459Z,4872
2017-07-21T07:19:08.439Z,4908
2017-07-21T07:20:08.440Z,4932
2017-07-21T07:21:08.415Z,4908
2017-07-21T07:22:08.389Z,4884
2017-07-21T07:23:08.388Z,4876
2017-07-21T07:24:08.125Z,4864
2017-07-21T07:25:08.041Z,4824
2017-07-21T07:26:08.356Z,4764
2017-07-21T07:27:08.030Z,4728
2017-07-21T07:28:08.345Z,4760
2017-07-21T07:29:07.998Z,4768
2017-07-21T07:30:07.681Z,4808
2017-07-21T07:31:08.288Z,4836
2017-07-21T07:32:08.289Z,4884
2017-07-21T07:33:08.376Z,4924
2017-07-21T07:34:07.327Z,4928
2017-07-21T07:35:07.940Z,4944
2017-07-21T07:36:07.929Z,4984
2017-07-21T07:37:08.342Z,5000
2017-07-21T07:38:08.277Z,5000
2017-07-21T07:39:07.858Z,5032
2017-07-21T07:40:07.929Z,5064
2017-07-21T07:41:07.880Z,5084
2017-07-21T07:42:08.136Z,5148
2017-07-21T07:43:07.877Z,5200
2017-07-21T07:44:07.486Z,5260
2017-07-21T07:45:08.100Z,5320
2017-07-21T07:46:08.071Z,5356
2017-07-21T07:47:08.108Z,5364
2017-07-21T07:48:07.738Z,5364
2017-07-21T07:49:07.732Z,5388
2017-07-21T07:50:08.031Z,5392
2017-07-21T07:51:07.413Z,5472
2017-07-21T07:52:07.671Z,5536
2017-07-21T07:53:08.029Z,5596
2017-07-21T07:54:07.351Z,5612
2017-07-21T07:55:07.636Z,5620
2017-07-21T07:56:07.619Z,5616
2017-07-21T07:57:07.618Z,5648
2017-07-21T07:58:07.608Z,5712
2017-07-21T07:59:07.939Z,5752
2017-07-21T08:00:07.269Z,5792
2017-07-21T08:01:07.881Z,5832
2017-07-21T08:02:07.548Z,5892
2017-07-21T08:03:07.537Z,5936
2017-07-21T08:04:07.230Z,5904
2017-07-21T08:05:07.503Z,5904
2017-07-21T08:06:07.530Z,5924
2017-07-21T08:07:07.205Z,5976
2017-07-21T08:08:07.469Z,6028
2017-07-21T08:09:07.451Z,6076
2017-07-21T08:10:07.469Z,6152
2017-07-21T08:11:07.443Z,6248
2017-07-21T08:12:07.820Z,6308
2017-07-21T08:13:07.719Z,6340
2017-07-21T08:14:07.409Z,6380
2017-07-21T08:15:07.388Z,6448
2017-07-21T08:16:07.371Z,6672
2017-07-21T08:17:07.378Z,6424
2017-07-21T08:18:07.356Z,6568
2017-07-21T08:19:07.341Z,6636
2017-07-21T08:20:07.319Z,6712
2017-07-21T08:21:07.615Z,6788
2017-07-21T08:22:07.590Z,6860
2017-07-21T08:23:07.293Z,6904
2017-07-21T08:24:07.570Z,6972
2017-07-21T08:25:07.556Z,7060
2017-07-21T08:26:07.544Z,7148
2017-07-21T08:27:07.229Z,7232
2017-07-21T08:28:07.528Z,7304
2017-07-21T08:29:07.509Z,7428
2017-07-21T08:30:07.509Z,7536
2017-07-21T08:31:07.195Z,7628
2017-07-21T08:32:07.185Z,7752
2017-07-21T08:33:07.460Z,8040
2017-07-21T08:34:07.457Z,8184
2017-07-21T08:35:07.458Z,8416
2017-07-21T08:36:07.428Z,8520
2017-07-21T08:37:07.447Z,9008
2017-07-21T08:38:07.411Z,15192
2017-07-21T08:39:07.115Z,25632
2017-07-21T08:40:07.397Z,38336
2017-07-21T08:41:07.398Z,49056
2017-07-21T08:42:07.391Z,62496
2017-07-21T08:43:07.362Z,82080
2017-07-21T08:44:07.031Z,86080
2017-07-21T08:45:07.360Z,90560
2017-07-21T08:46:07.370Z,90560
2017-07-21T08:47:06.721Z,84224
2017-07-21T08:48:07.319Z,86048
2017-07-21T08:49:07.003Z,88928
2017-07-21T08:50:07.290Z,89344
2017-07-21T08:51:06.979Z,91488
2017-07-21T08:52:07.277Z,91616
2017-07-21T08:53:07.269Z,89696
2017-07-21T08:54:07.354Z,69216
2017-07-21T08:55:06.940Z,95104
2017-07-21T08:56:07.265Z,92320
2017-07-21T08:57:07.221Z,84768
2017-07-21T08:58:07.244Z,87840
2017-07-21T08:59:07.220Z,93696
2017-07-21T09:00:07.310Z,89280
2017-07-21T09:01:07.188Z,83360
2017-07-21T09:02:07.187Z,82688
2017-07-21T09:03:07.192Z,86016
2017-07-21T09:04:06.607Z,91168
2017-07-21T09:05:07.179Z,86048
2017-07-21T09:06:07.162Z,81824
2017-07-21T09:07:07.171Z,83296
2017-07-21T09:08:07.158Z,88768
2017-07-21T09:09:07.192Z,88512
2017-07-21T09:10:07.131Z,87552
2017-07-21T09:11:06.820Z,82720
2017-07-21T09:12:07.136Z,80992
2017-07-21T09:13:06.843Z,78080
2017-07-21T09:14:07.140Z,79008
2017-07-21T09:15:07.153Z,85728
2017-07-21T09:16:06.820Z,89376
2017-07-21T09:17:07.112Z,85120
2017-07-21T09:18:06.789Z,84576
2017-07-21T09:19:06.808Z,81088
2017-07-21T09:20:07.092Z,78368
2017-07-21T09:21:07.086Z,79136
2017-07-21T09:22:07.081Z,77056
2017-07-21T09:23:07.261Z,77600
2017-07-21T09:24:07.112Z,79072
2017-07-21T09:25:07.101Z,82048
2017-07-21T09:26:07.112Z,76256
2017-07-21T09:27:06.840Z,74272
2017-07-21T09:28:07.092Z,70560
2017-07-21T09:29:07.083Z,71936
2017-07-21T09:30:06.790Z,75552
2017-07-21T09:31:07.102Z,73664
2017-07-21T09:32:07.167Z,65440
2017-07-21T09:33:06.786Z,74208
2017-07-21T09:34:06.790Z,71168
2017-07-21T09:35:07.093Z,71296
2017-07-21T09:36:07.080Z,74848
2017-07-21T09:37:06.729Z,74400
2017-07-21T09:38:06.749Z,71616
2017-07-21T09:39:07.059Z,67616
2017-07-21T09:40:06.749Z,66304
2017-07-21T09:41:07.039Z,63424
2017-07-21T09:42:07.036Z,64160
2017-07-21T09:43:06.719Z,63328
2017-07-21T09:44:07.028Z,62656
2017-07-21T09:45:06.728Z,62368
2017-07-21T09:46:06.740Z,63360
2017-07-21T09:47:06.729Z,61792
2017-07-21T09:48:06.708Z,65696
2017-07-21T09:49:06.718Z,67264
2017-07-21T09:50:06.738Z,65440
2017-07-21T09:51:06.740Z,62048
2017-07-21T09:52:07.018Z,62944
2017-07-21T09:53:06.999Z,64576
2017-07-21T09:54:06.789Z,64544
2017-07-21T09:55:07.081Z,59488
2017-07-21T09:56:06.805Z,59520
2017-07-21T09:57:06.377Z,62368
2017-07-21T09:58:06.708Z,61216
2017-07-21T09:59:06.989Z,61952
2017-07-21T10:00:06.700Z,60352
2017-07-21T10:01:07.033Z,58784
2017-07-21T10:02:07.000Z,60544
2017-07-21T10:03:06.999Z,57472
2017-07-21T10:04:06.749Z,54656
2017-07-21T10:05:07.067Z,52768
2017-07-21T10:06:06.970Z,54400
2017-07-21T10:07:06.988Z,56256
2017-07-21T10:08:06.670Z,54560
2017-07-21T10:09:06.969Z,52032
2017-07-21T10:10:06.977Z,54112
2017-07-21T10:11:06.978Z,53568
2017-07-21T10:12:06.963Z,52416
2017-07-21T10:13:06.670Z,50208
2017-07-21T10:14:06.356Z,50912
2017-07-21T10:15:06.953Z,49888
2017-07-21T10:16:06.639Z,48128
2017-07-21T10:17:06.339Z,46880
2017-07-21T10:18:06.669Z,44384
2017-07-21T10:19:06.938Z,46368
2017-07-21T10:20:06.959Z,47616
2017-07-21T10:21:06.927Z,45728
2017-07-21T10:22:06.929Z,42560
2017-07-21T10:23:06.919Z,46048
2017-07-21T10:24:06.939Z,34496
2017-07-21T10:25:06.612Z,16064
2017-07-21T10:26:06.974Z,9024
2017-07-21T10:27:06.592Z,8656
2017-07-21T10:28:06.967Z,8460
2017-07-21T10:29:06.611Z,8388
2017-07-21T10:30:07.006Z,8320
2017-07-21T10:31:06.586Z,8224
2017-07-21T10:32:06.989Z,8180
2017-07-21T10:33:06.908Z,8168
2017-07-21T10:34:06.909Z,8156
2017-07-21T10:35:06.870Z,8144
2017-07-21T10:36:06.977Z,8128
2017-07-21T10:37:06.852Z,8116
2017-07-21T10:38:06.839Z,8072
2017-07-21T10:39:06.870Z,8008
2017-07-21T10:40:06.857Z,7996
2017-07-21T10:41:06.818Z,7972
2017-07-21T10:42:06.525Z,7968
2017-07-21T10:43:06.817Z,7972
2017-07-21T10:44:06.808Z,7980
2017-07-21T10:45:06.188Z,7992
2017-07-21T10:46:06.788Z,8000
2017-07-21T10:47:06.802Z,8068
2017-07-21T10:48:06.766Z,8148
2017-07-21T10:49:06.778Z,7896
2017-07-21T10:50:06.758Z,7720
2017-07-21T10:51:06.768Z,7728
2017-07-21T10:52:06.760Z,7808
2017-07-21T10:53:06.437Z,7852
2017-07-21T10:54:06.737Z,7820
2017-07-21T10:55:06.421Z,7792
2017-07-21T10:56:06.406Z,7628
2017-07-21T10:57:06.721Z,7524
2017-07-21T10:58:06.398Z,7512
2017-07-21T10:59:06.687Z,7524
2017-07-21T11:00:06.404Z,7540
2017-07-21T11:01:06.367Z,7572
2017-07-21T11:02:06.436Z,7572
2017-07-21T11:03:06.752Z,7616
2017-07-21T11:04:06.786Z,7656
2017-07-21T11:05:06.680Z,7836
2017-07-21T11:06:06.043Z,8016
2017-07-21T11:07:06.635Z,7956
2017-07-21T11:08:06.349Z,7052
2017-07-21T11:09:06.630Z,8268
2017-07-21T11:10:06.663Z,8720
2017-07-21T11:11:06.335Z,6168
2017-07-21T11:12:05.996Z,8284
2017-07-21T11:13:06.638Z,7448
2017-07-21T11:14:06.598Z,7280
2017-07-21T11:15:06.639Z,7212
2017-07-21T11:16:06.269Z,7176
2017-07-21T11:17:05.968Z,7152
2017-07-21T11:18:05.638Z,7164
2017-07-21T11:19:06.545Z,7172
2017-07-21T11:20:06.217Z,7180
2017-07-21T11:21:06.539Z,7192
2017-07-21T11:22:06.259Z,7220
2017-07-21T11:23:06.528Z,7232
2017-07-21T11:24:06.212Z,7224
2017-07-21T11:25:06.519Z,7248
2017-07-21T11:26:06.188Z,7264
2017-07-21T11:27:05.876Z,7240
2017-07-21T11:28:06.191Z,7272
2017-07-21T11:29:06.464Z,7240
2017-07-21T11:30:05.850Z,7180
2017-07-21T11:31:06.146Z,7156
2017-07-21T11:32:06.464Z,7164
2017-07-21T11:33:06.460Z,7200
2017-07-21T11:34:06.198Z,7332
2017-07-21T11:35:06.416Z,7380
2017-07-21T11:36:06.426Z,7424
2017-07-21T11:37:06.159Z,7396
2017-07-21T11:38:06.105Z,7288
2017-07-21T11:39:06.391Z,7448
2017-07-21T11:40:06.142Z,7716
2017-07-21T11:41:06.068Z,7996
2017-07-21T11:42:06.062Z,8432
2017-07-21T11:43:06.467Z,8828
2017-07-21T11:44:06.054Z,8800
2017-07-21T11:45:06.452Z,8308
2017-07-21T11:46:06.357Z,7992
2017-07-21T11:47:06.427Z,7720
2017-07-21T11:48:05.720Z,7688
2017-07-21T11:49:06.308Z,7524
2017-07-21T11:50:06.035Z,7388
2017-07-21T11:51:05.677Z,7220
2017-07-21T11:52:06.328Z,7188
2017-07-21T11:53:06.388Z,7228
2017-07-21T11:54:06.281Z,7112
2017-07-21T11:55:06.377Z,7160
2017-07-21T11:56:06.266Z,7148
2017-07-21T11:57:05.640Z,5548
2017-07-21T11:58:06.290Z,4496
2017-07-21T11:59:06.243Z,7224
2017-07-21T12:00:05.933Z,7304
2017-07-21T12:01:06.266Z,7224
2017-07-21T12:02:05.929Z,7312
2017-07-21T12:03:05.651Z,7048
2017-07-21T12:04:05.897Z,6768
2017-07-21T12:05:06.205Z,6716
2017-07-21T12:06:05.571Z,6744
2017-07-21T12:07:05.872Z,6692
2017-07-21T12:08:05.544Z,6664
2017-07-21T12:09:05.857Z,6592
2017-07-21T12:10:06.167Z,6636
2017-07-21T12:11:05.864Z,6624
2017-07-21T12:12:06.120Z,6608
2017-07-21T12:13:05.537Z,6600
2017-07-21T12:14:06.125Z,3564
2017-07-21T12:15:05.490Z,6504
2017-07-21T12:16:05.888Z,6560
2017-07-21T12:17:06.107Z,6504
2017-07-21T12:18:06.099Z,6536
2017-07-21T12:19:05.787Z,6524
2017-07-21T12:20:05.477Z,6568
2017-07-21T12:21:05.770Z,6576
2017-07-21T12:22:06.042Z,6580
2017-07-21T12:23:05.751Z,6608
2017-07-21T12:24:05.422Z,6564
2017-07-21T12:25:06.043Z,6544
2017-07-21T12:26:06.035Z,6536
2017-07-21T12:27:05.728Z,6484
2017-07-21T12:28:06.117Z,6472
2017-07-21T12:29:05.709Z,6508
2017-07-21T12:30:05.697Z,6516
2017-07-21T12:31:05.366Z,6548
2017-07-21T12:32:05.679Z,6572
2017-07-21T12:33:05.677Z,6588
2017-07-21T12:34:06.078Z,6468
2017-07-21T12:35:05.657Z,6396
2017-07-21T12:36:05.960Z,6360
2017-07-21T12:37:05.648Z,6388
2017-07-21T12:38:05.678Z,6368
2017-07-21T12:39:05.959Z,6380
2017-07-21T12:40:05.921Z,6348
2017-07-21T12:41:05.603Z,6392
2017-07-21T12:42:05.603Z,6420
2017-07-21T12:43:05.277Z,6440
2017-07-21T12:44:05.274Z,6404
2017-07-21T12:45:05.565Z,6356
2017-07-21T12:46:05.866Z,6324
2017-07-21T12:47:05.256Z,6320
2017-07-21T12:48:05.868Z,6332
2017-07-21T12:49:05.852Z,6308
2017-07-21T12:50:05.541Z,6344
2017-07-21T12:51:05.527Z,6268
2017-07-21T12:52:05.519Z,6320
2017-07-21T12:53:05.827Z,6360
2017-07-21T12:54:05.500Z,6256
2017-07-21T12:55:05.858Z,6224
2017-07-21T12:56:05.189Z,6232
2017-07-21T12:57:05.797Z,6300
2017-07-21T12:58:05.786Z,6280
2017-07-21T12:59:05.474Z,6288
2017-07-21T13:00:05.465Z,6328
2017-07-21T13:01:05.463Z,6360
2017-07-21T13:02:04.840Z,6328
2017-07-21T13:03:05.440Z,6304
2017-07-21T13:04:05.139Z,6384
2017-07-21T13:05:05.425Z,6392
2017-07-21T13:06:05.739Z,6472
2017-07-21T13:07:05.402Z,6388
2017-07-21T13:08:05.086Z,6332
2017-07-21T13:09:05.109Z,5600
2017-07-21T13:10:05.397Z,5372
2017-07-21T13:11:05.398Z,3528
2017-07-21T13:12:05.680Z,6304
2017-07-21T13:13:05.366Z,6344
2017-07-21T13:14:05.360Z,6340
2017-07-21T13:15:04.803Z,6328
2017-07-21T13:16:05.699Z,6420
2017-07-21T13:17:05.668Z,6476
2017-07-21T13:18:05.734Z,6440
2017-07-21T13:19:05.325Z,6448
2017-07-21T13:20:05.009Z,6484
2017-07-21T13:21:05.306Z,6512
2017-07-21T13:22:05.608Z,6400
2017-07-21T13:23:05.294Z,6492
2017-07-21T13:24:04.681Z,6568
2017-07-21T13:25:05.277Z,6572
2017-07-21T13:26:05.246Z,6512
2017-07-21T13:27:04.958Z,6612
2017-07-21T13:28:05.234Z,6572
2017-07-21T13:29:05.256Z,6492
2017-07-21T13:30:05.228Z,6544
2017-07-21T13:31:04.940Z,6352
2017-07-21T13:32:05.537Z,6548
2017-07-21T13:33:05.202Z,6596
2017-07-21T13:34:05.215Z,6664
2017-07-21T13:35:04.905Z,4192
2017-07-21T13:36:05.177Z,6696
2017-07-21T13:37:05.187Z,5812
2017-07-21T13:38:05.168Z,3652
2017-07-21T13:39:05.467Z,6552